sensor_id;sensor_type;location;lat;lon;timestamp;pressure;altitude;pressure_sealevel;temperature
48003;BMP280;33768;48.578;11.574;2023-06-14T00:01:47;96017.59;;;13.20
48003;BMP280;33768;48.578;11.574;2023-06-14T00:04:52;96020.19;;;13.11
48003;BMP280;33768;48.578;11.574;2023-06-14T00:07:56;96018.53;;;13.08
48003;BMP280;33768;48.578;11.574;2023-06-14T00:11:00;96007.63;;;13.00
48003;BMP280;33768;48.578;11.574;2023-06-14T00:14:04;96022.03;;;12.86
48003;BMP280;33768;48.578;11.574;2023-06-14T00:17:09;96019.84;;;12.84
48003;BMP280;33768;48.578;11.574;2023-06-14T00:20:13;96016.91;;;12.82
48003;BMP280;33768;48.578;11.574;2023-06-14T00:23:18;96004.50;;;12.89
48003;BMP280;33768;48.578;11.574;2023-06-14T00:26:22;96005.78;;;12.95
48003;BMP280;33768;48.578;11.574;2023-06-14T00:29:26;96005.41;;;12.91
48003;BMP280;33768;48.578;11.574;2023-06-14T00:32:30;95994.84;;;12.95
48003;BMP280;33768;48.578;11.574;2023-06-14T00:35:34;96012.91;;;12.98
48003;BMP280;33768;48.578;11.574;2023-06-14T00:38:38;96008.69;;;12.90
48003;BMP280;33768;48.578;11.574;2023-06-14T00:41:42;96012.72;;;12.82
48003;BMP280;33768;48.578;11.574;2023-06-14T00:44:46;96020.91;;;12.74
48003;BMP280;33768;48.578;11.574;2023-06-14T00:47:51;96008.50;;;12.66
48003;BMP280;33768;48.578;11.574;2023-06-14T00:51:00;96004.31;;;12.65
48003;BMP280;33768;48.578;11.574;2023-06-14T00:54:07;96010.88;;;12.62
48003;BMP280;33768;48.578;11.574;2023-06-14T00:57:12;96007.97;;;12.52
48003;BMP280;33768;48.578;11.574;2023-06-14T01:00:18;96007.41;;;12.54
48003;BMP280;33768;48.578;11.574;2023-06-14T01:03:41;96003.41;;;12.55
48003;BMP280;33768;48.578;11.574;2023-06-14T01:07:12;96012.16;;;12.53
48003;BMP280;33768;48.578;11.574;2023-06-14T01:13:34;96010.31;;;12.41
48003;BMP280;33768;48.578;11.574;2023-06-14T01:16:39;96010.13;;;12.32
48003;BMP280;33768;48.578;11.574;2023-06-14T01:19:45;96010.13;;;12.24
48003;BMP280;33768;48.578;11.574;2023-06-14T01:22:55;96018.69;;;12.14
48003;BMP280;33768;48.578;11.574;2023-06-14T01:25:59;96016.84;;;12.09
48003;BMP280;33768;48.578;11.574;2023-06-14T01:29:09;96016.50;;;12.05
48003;BMP280;33768;48.578;11.574;2023-06-14T01:32:15;96014.63;;;11.92
48003;BMP280;33768;48.578;11.574;2023-06-14T01:35:19;96010.19;;;11.75
48003;BMP280;33768;48.578;11.574;2023-06-14T01:38:25;96012.69;;;11.58
48003;BMP280;33768;48.578;11.574;2023-06-14T01:41:31;96008.66;;;11.59
48003;BMP280;33768;48.578;11.574;2023-06-14T01:44:35;96013.44;;;11.66
48003;BMP280;33768;48.578;11.574;2023-06-14T01:47:40;96005.06;;;11.71
48003;BMP280;33768;48.578;11.574;2023-06-14T01:50:44;96012.94;;;11.75
48003;BMP280;33768;48.578;11.574;2023-06-14T01:53:48;96008.19;;;11.75
48003;BMP280;33768;48.578;11.574;2023-06-14T01:56:52;95999.78;;;11.73
48003;BMP280;33768;48.578;11.574;2023-06-14T01:59:56;96005.78;;;11.64
48003;BMP280;33768;48.578;11.574;2023-06-14T02:03:00;96005.28;;;11.38
48003;BMP280;33768;48.578;11.574;2023-06-14T02:06:05;96005.16;;;11.16
48003;BMP280;33768;48.578;11.574;2023-06-14T02:09:10;96014.31;;;10.98
48003;BMP280;33768;48.578;11.574;2023-06-14T02:12:14;96022.16;;;10.94
48003;BMP280;33768;48.578;11.574;2023-06-14T02:15:18;96025.25;;;10.98
48003;BMP280;33768;48.578;11.574;2023-06-14T02:18:23;96027.34;;;11.13
48003;BMP280;33768;48.578;11.574;2023-06-14T02:21:27;96028.09;;;11.13
48003;BMP280;33768;48.578;11.574;2023-06-14T02:24:31;96012.81;;;10.90
48003;BMP280;33768;48.578;11.574;2023-06-14T02:27:36;96023.19;;;10.64
48003;BMP280;33768;48.578;11.574;2023-06-14T02:30:41;96016.63;;;10.60
48003;BMP280;33768;48.578;11.574;2023-06-14T02:33:45;96026.31;;;10.68
48003;BMP280;33768;48.578;11.574;2023-06-14T02:36:51;96032.84;;;10.65
48003;BMP280;33768;48.578;11.574;2023-06-14T02:39:58;96020.38;;;10.77
48003;BMP280;33768;48.578;11.574;2023-06-14T02:43:02;96025.22;;;10.91
48003;BMP280;33768;48.578;11.574;2023-06-14T02:46:07;96022.53;;;10.98
48003;BMP280;33768;48.578;11.574;2023-06-14T02:49:11;96019.06;;;10.98
48003;BMP280;33768;48.578;11.574;2023-06-14T02:52:16;96024.16;;;10.94
48003;BMP280;33768;48.578;11.574;2023-06-14T02:55:20;96022.19;;;11.02
48003;BMP280;33768;48.578;11.574;2023-06-14T02:58:24;96022.56;;;11.06
48003;BMP280;33768;48.578;11.574;2023-06-14T03:01:29;96030.97;;;11.08
48003;BMP280;33768;48.578;11.574;2023-06-14T03:04:41;96034.16;;;10.92
48003;BMP280;33768;48.578;11.574;2023-06-14T03:07:51;96031.22;;;10.90
48003;BMP280;33768;48.578;11.574;2023-06-14T03:10:57;96033.31;;;10.76
48003;BMP280;33768;48.578;11.574;2023-06-14T03:14:02;96030.13;;;10.65
48003;BMP280;33768;48.578;11.574;2023-06-14T03:17:08;96027.59;;;10.47
48003;BMP280;33768;48.578;11.574;2023-06-14T03:20:16;96031.41;;;10.44
48003;BMP280;33768;48.578;11.574;2023-06-14T03:23:21;96035.28;;;10.48
48003;BMP280;33768;48.578;11.574;2023-06-14T03:26:26;96029.53;;;10.59
48003;BMP280;33768;48.578;11.574;2023-06-14T03:29:33;96029.78;;;10.68
48003;BMP280;33768;48.578;11.574;2023-06-14T03:32:37;96032.03;;;10.77
48003;BMP280;33768;48.578;11.574;2023-06-14T03:35:43;96030.09;;;10.85
48003;BMP280;33768;48.578;11.574;2023-06-14T03:38:48;96027.97;;;10.91
48003;BMP280;33768;48.578;11.574;2023-06-14T03:41:54;96037.06;;;10.93
48003;BMP280;33768;48.578;11.574;2023-06-14T03:44:59;96040.34;;;10.92
48003;BMP280;33768;48.578;11.574;2023-06-14T03:48:04;96039.06;;;10.93
48003;BMP280;33768;48.578;11.574;2023-06-14T03:51:10;96039.59;;;10.92
48003;BMP280;33768;48.578;11.574;2023-06-14T03:54:15;96057.72;;;10.82
48003;BMP280;33768;48.578;11.574;2023-06-14T03:57:19;96048.41;;;10.77
48003;BMP280;33768;48.578;11.574;2023-06-14T04:00:27;96061.94;;;10.62
48003;BMP280;33768;48.578;11.574;2023-06-14T04:03:32;96072.53;;;10.66
48003;BMP280;33768;48.578;11.574;2023-06-14T04:06:38;96068.03;;;10.76
48003;BMP280;33768;48.578;11.574;2023-06-14T04:09:43;96078.91;;;10.89
48003;BMP280;33768;48.578;11.574;2023-06-14T04:12:48;96071.28;;;10.94
48003;BMP280;33768;48.578;11.574;2023-06-14T04:15:52;96076.81;;;11.02
48003;BMP280;33768;48.578;11.574;2023-06-14T04:19:02;96079.19;;;11.05
48003;BMP280;33768;48.578;11.574;2023-06-14T04:22:06;96086.00;;;11.12
48003;BMP280;33768;48.578;11.574;2023-06-14T04:25:12;96090.75;;;11.19
48003;BMP280;33768;48.578;11.574;2023-06-14T04:28:18;96089.56;;;11.27
48003;BMP280;33768;48.578;11.574;2023-06-14T04:31:24;96093.97;;;11.37
48003;BMP280;33768;48.578;11.574;2023-06-14T04:34:29;96098.16;;;11.38
48003;BMP280;33768;48.578;11.574;2023-06-14T04:37:39;96098.59;;;11.42
48003;BMP280;33768;48.578;11.574;2023-06-14T04:40:45;96093.91;;;11.50
48003;BMP280;33768;48.578;11.574;2023-06-14T04:43:53;96107.78;;;11.52
48003;BMP280;33768;48.578;11.574;2023-06-14T04:46:57;96103.59;;;11.58
48003;BMP280;33768;48.578;11.574;2023-06-14T04:50:03;96109.84;;;11.66
48003;BMP280;33768;48.578;11.574;2023-06-14T04:53:09;96111.69;;;11.71
48003;BMP280;33768;48.578;11.574;2023-06-14T04:56:15;96110.06;;;11.76
48003;BMP280;33768;48.578;11.574;2023-06-14T04:59:21;96115.56;;;11.83
48003;BMP280;33768;48.578;11.574;2023-06-14T05:02:29;96114.38;;;11.99
48003;BMP280;33768;48.578;11.574;2023-06-14T05:05:34;96110.56;;;12.09
48003;BMP280;33768;48.578;11.574;2023-06-14T05:08:38;96113.53;;;12.18
48003;BMP280;33768;48.578;11.574;2023-06-14T05:11:42;96120.34;;;12.32
48003;BMP280;33768;48.578;11.574;2023-06-14T05:14:48;96117.81;;;12.56
48003;BMP280;33768;48.578;11.574;2023-06-14T05:17:54;96116.28;;;12.90
48003;BMP280;33768;48.578;11.574;2023-06-14T05:20:58;96119.00;;;13.20
48003;BMP280;33768;48.578;11.574;2023-06-14T05:24:03;96119.69;;;13.50
48003;BMP280;33768;48.578;11.574;2023-06-14T05:27:07;96104.41;;;13.93
48003;BMP280;33768;48.578;11.574;2023-06-14T05:30:11;96112.88;;;14.34
48003;BMP280;33768;48.578;11.574;2023-06-14T05:33:15;96112.63;;;14.71
48003;BMP280;33768;48.578;11.574;2023-06-14T05:36:20;96118.47;;;14.99
48003;BMP280;33768;48.578;11.574;2023-06-14T05:39:25;96109.72;;;15.25
48003;BMP280;33768;48.578;11.574;2023-06-14T05:42:29;96104.88;;;15.33
48003;BMP280;33768;48.578;11.574;2023-06-14T05:45:33;96119.09;;;15.38
48003;BMP280;33768;48.578;11.574;2023-06-14T05:48:37;96129.00;;;15.58
48003;BMP280;33768;48.578;11.574;2023-06-14T05:51:42;96124.81;;;15.74
48003;BMP280;33768;48.578;11.574;2023-06-14T05:54:47;96120.03;;;15.91
48003;BMP280;33768;48.578;11.574;2023-06-14T05:57:50;96126.19;;;15.99
48003;BMP280;33768;48.578;11.574;2023-06-14T06:00:55;96116.88;;;16.11
48003;BMP280;33768;48.578;11.574;2023-06-14T06:03:59;96113.72;;;16.15
48003;BMP280;33768;48.578;11.574;2023-06-14T06:07:04;96113.34;;;16.18
48003;BMP280;33768;48.578;11.574;2023-06-14T06:10:09;96110.72;;;16.20
48003;BMP280;33768;48.578;11.574;2023-06-14T06:13:13;96115.25;;;16.25
48003;BMP280;33768;48.578;11.574;2023-06-14T06:16:17;96124.19;;;16.33
48003;BMP280;33768;48.578;11.574;2023-06-14T06:19:21;96122.78;;;16.41
48003;BMP280;33768;48.578;11.574;2023-06-14T06:22:26;96128.63;;;16.71
48003;BMP280;33768;48.578;11.574;2023-06-14T06:25:30;96135.72;;;17.00
48003;BMP280;33768;48.578;11.574;2023-06-14T06:28:35;96132.13;;;17.07
48003;BMP280;33768;48.578;11.574;2023-06-14T06:31:39;96134.44;;;17.11
48003;BMP280;33768;48.578;11.574;2023-06-14T06:34:43;96139.47;;;17.22
48003;BMP280;33768;48.578;11.574;2023-06-14T06:37:47;96139.59;;;17.23
48003;BMP280;33768;48.578;11.574;2023-06-14T06:40:51;96142.22;;;17.22
48003;BMP280;33768;48.578;11.574;2023-06-14T06:43:55;96152.50;;;17.12
48003;BMP280;33768;48.578;11.574;2023-06-14T06:47:06;96146.00;;;17.00
48003;BMP280;33768;48.578;11.574;2023-06-14T06:50:10;96148.47;;;16.96
48003;BMP280;33768;48.578;11.574;2023-06-14T06:53:14;96150.75;;;16.90
48003;BMP280;33768;48.578;11.574;2023-06-14T06:56:19;96151.06;;;16.94
48003;BMP280;33768;48.578;11.574;2023-06-14T06:59:24;96148.94;;;17.02
48003;BMP280;33768;48.578;11.574;2023-06-14T07:02:28;96147.44;;;17.18
48003;BMP280;33768;48.578;11.574;2023-06-14T07:05:34;96154.44;;;17.28
48003;BMP280;33768;48.578;11.574;2023-06-14T07:08:38;96159.63;;;17.59
48003;BMP280;33768;48.578;11.574;2023-06-14T07:11:43;96159.69;;;17.87
48003;BMP280;33768;48.578;11.574;2023-06-14T07:14:48;96154.06;;;18.32
48003;BMP280;33768;48.578;11.574;2023-06-14T07:17:52;96163.75;;;18.80
48003;BMP280;33768;48.578;11.574;2023-06-14T07:20:57;96149.25;;;19.19
48003;BMP280;33768;48.578;11.574;2023-06-14T07:24:00;96148.25;;;19.44
48003;BMP280;33768;48.578;11.574;2023-06-14T07:27:05;96160.00;;;19.54
48003;BMP280;33768;48.578;11.574;2023-06-14T07:30:10;96163.69;;;19.77
48003;BMP280;33768;48.578;11.574;2023-06-14T07:33:14;96169.19;;;20.28
48003;BMP280;33768;48.578;11.574;2023-06-14T07:36:18;96168.88;;;20.98
48003;BMP280;33768;48.578;11.574;2023-06-14T07:39:22;96163.78;;;21.83
48003;BMP280;33768;48.578;11.574;2023-06-14T07:42:27;96167.34;;;22.08
48003;BMP280;33768;48.578;11.574;2023-06-14T07:45:31;96167.72;;;22.02
48003;BMP280;33768;48.578;11.574;2023-06-14T07:48:35;96168.38;;;22.37
48003;BMP280;33768;48.578;11.574;2023-06-14T07:51:39;96173.47;;;23.01
48003;BMP280;33768;48.578;11.574;2023-06-14T07:54:43;96165.66;;;24.42
48003;BMP280;33768;48.578;11.574;2023-06-14T07:57:48;96165.91;;;25.03
48003;BMP280;33768;48.578;11.574;2023-06-14T08:00:52;96171.06;;;26.00
48003;BMP280;33768;48.578;11.574;2023-06-14T08:03:56;96152.19;;;26.80
48003;BMP280;33768;48.578;11.574;2023-06-14T08:07:00;96159.56;;;27.06
48003;BMP280;33768;48.578;11.574;2023-06-14T08:10:05;96160.28;;;26.40
48003;BMP280;33768;48.578;11.574;2023-06-14T08:13:10;96164.47;;;26.24
48003;BMP280;33768;48.578;11.574;2023-06-14T08:16:14;96174.53;;;25.98
48003;BMP280;33768;48.578;11.574;2023-06-14T08:19:19;96175.50;;;25.44
48003;BMP280;33768;48.578;11.574;2023-06-14T08:22:24;96167.69;;;25.55
48003;BMP280;33768;48.578;11.574;2023-06-14T08:25:28;96165.19;;;26.57
48003;BMP280;33768;48.578;11.574;2023-06-14T08:28:32;96173.53;;;26.40
48003;BMP280;33768;48.578;11.574;2023-06-14T08:31:36;96170.00;;;26.22
48003;BMP280;33768;48.578;11.574;2023-06-14T08:34:40;96177.00;;;26.23
48003;BMP280;33768;48.578;11.574;2023-06-14T08:37:44;96180.13;;;25.68
48003;BMP280;33768;48.578;11.574;2023-06-14T08:40:51;96181.72;;;25.42
48003;BMP280;33768;48.578;11.574;2023-06-14T08:43:56;96181.56;;;24.81
48003;BMP280;33768;48.578;11.574;2023-06-14T08:47:01;96187.06;;;25.82
48003;BMP280;33768;48.578;11.574;2023-06-14T08:50:07;96186.00;;;27.03
48003;BMP280;33768;48.578;11.574;2023-06-14T08:53:14;96177.88;;;28.40
48003;BMP280;33768;48.578;11.574;2023-06-14T08:56:28;96172.03;;;29.38
48003;BMP280;33768;48.578;11.574;2023-06-14T08:59:33;96172.50;;;30.23
48003;BMP280;33768;48.578;11.574;2023-06-14T09:02:43;96175.63;;;30.35
48003;BMP280;33768;48.578;11.574;2023-06-14T09:05:50;96177.91;;;30.67
48003;BMP280;33768;48.578;11.574;2023-06-14T09:08:56;96172.81;;;31.16
48003;BMP280;33768;48.578;11.574;2023-06-14T09:12:03;96168.34;;;31.65
48003;BMP280;33768;48.578;11.574;2023-06-14T09:15:10;96168.56;;;31.75
48003;BMP280;33768;48.578;11.574;2023-06-14T09:18:14;96179.25;;;31.20
48003;BMP280;33768;48.578;11.574;2023-06-14T09:21:19;96183.56;;;30.69
48003;BMP280;33768;48.578;11.574;2023-06-14T09:24:24;96180.38;;;29.13
48003;BMP280;33768;48.578;11.574;2023-06-14T09:27:32;96188.72;;;27.53
48003;BMP280;33768;48.578;11.574;2023-06-14T09:30:37;96180.13;;;27.86
48003;BMP280;33768;48.578;11.574;2023-06-14T09:33:43;96180.19;;;29.07
48003;BMP280;33768;48.578;11.574;2023-06-14T09:36:51;96181.63;;;28.46
48003;BMP280;33768;48.578;11.574;2023-06-14T09:39:55;96184.88;;;28.20
48003;BMP280;33768;48.578;11.574;2023-06-14T09:43:00;96175.56;;;28.94
48003;BMP280;33768;48.578;11.574;2023-06-14T09:46:04;96175.50;;;29.13
48003;BMP280;33768;48.578;11.574;2023-06-14T09:49:08;96166.84;;;29.28
48003;BMP280;33768;48.578;11.574;2023-06-14T09:52:20;96174.09;;;29.82
48003;BMP280;33768;48.578;11.574;2023-06-14T09:55:25;96167.03;;;29.34
48003;BMP280;33768;48.578;11.574;2023-06-14T09:58:32;96180.84;;;28.44
48003;BMP280;33768;48.578;11.574;2023-06-14T10:01:41;96181.91;;;27.58
48003;BMP280;33768;48.578;11.574;2023-06-14T10:04:51;96180.13;;;28.43
48003;BMP280;33768;48.578;11.574;2023-06-14T10:08:04;96168.53;;;29.84
48003;BMP280;33768;48.578;11.574;2023-06-14T10:11:12;96174.34;;;30.67
48003;BMP280;33768;48.578;11.574;2023-06-14T10:14:17;96165.69;;;31.13
48003;BMP280;33768;48.578;11.574;2023-06-14T10:20:37;96158.94;;;32.58
48003;BMP280;33768;48.578;11.574;2023-06-14T10:23:44;96163.25;;;33.02
48003;BMP280;33768;48.578;11.574;2023-06-14T10:26:56;96173.34;;;32.35
48003;BMP280;33768;48.578;11.574;2023-06-14T10:30:07;96165.81;;;32.12
48003;BMP280;33768;48.578;11.574;2023-06-14T10:33:14;96157.44;;;32.53
48003;BMP280;33768;48.578;11.574;2023-06-14T10:39:27;96169.63;;;31.00
48003;BMP280;33768;48.578;11.574;2023-06-14T10:42:34;96160.28;;;30.15
48003;BMP280;33768;48.578;11.574;2023-06-14T10:49:39;96168.66;;;27.97
48003;BMP280;33768;48.578;11.574;2023-06-14T10:52:45;96169.91;;;27.21
48003;BMP280;33768;48.578;11.574;2023-06-14T10:55:50;96172.59;;;28.09
48003;BMP280;33768;48.578;11.574;2023-06-14T10:58:56;96160.22;;;30.13
48003;BMP280;33768;48.578;11.574;2023-06-14T11:05:27;96157.72;;;28.64
48003;BMP280;33768;48.578;11.574;2023-06-14T11:11:56;96173.72;;;25.80
48003;BMP280;33768;48.578;11.574;2023-06-14T11:15:00;96173.50;;;25.31
48003;BMP280;33768;48.578;11.574;2023-06-14T11:18:07;96179.50;;;25.10
48003;BMP280;33768;48.578;11.574;2023-06-14T11:21:15;96173.63;;;24.76
48003;BMP280;33768;48.578;11.574;2023-06-14T11:24:20;96183.13;;;24.42
48003;BMP280;33768;48.578;11.574;2023-06-14T11:27:27;96183.13;;;24.02
48003;BMP280;33768;48.578;11.574;2023-06-14T11:30:31;96186.03;;;24.04
48003;BMP280;33768;48.578;11.574;2023-06-14T11:33:35;96179.00;;;24.03
48003;BMP280;33768;48.578;11.574;2023-06-14T11:36:39;96180.56;;;23.93
48003;BMP280;33768;48.578;11.574;2023-06-14T11:39:44;96181.06;;;23.89
48003;BMP280;33768;48.578;11.574;2023-06-14T11:42:49;96168.78;;;24.08
48003;BMP280;33768;48.578;11.574;2023-06-14T11:45:53;96173.31;;;24.15
48003;BMP280;33768;48.578;11.574;2023-06-14T11:48:57;96165.66;;;24.42
48003;BMP280;33768;48.578;11.574;2023-06-14T11:52:02;96166.75;;;24.63
48003;BMP280;33768;48.578;11.574;2023-06-14T11:55:06;96159.75;;;25.96
48003;BMP280;33768;48.578;11.574;2023-06-14T11:58:10;96155.66;;;27.33
48003;BMP280;33768;48.578;11.574;2023-06-14T12:01:16;96157.22;;;28.10
48003;BMP280;33768;48.578;11.574;2023-06-14T12:04:26;96152.00;;;28.41
48003;BMP280;33768;48.578;11.574;2023-06-14T12:07:31;96133.91;;;29.54
48003;BMP280;33768;48.578;11.574;2023-06-14T12:10:41;96145.78;;;30.51
48003;BMP280;33768;48.578;11.574;2023-06-14T12:13:48;96138.16;;;31.12
48003;BMP280;33768;48.578;11.574;2023-06-14T12:17:06;96132.50;;;31.72
48003;BMP280;33768;48.578;11.574;2023-06-14T12:20:12;96120.41;;;32.35
48003;BMP280;33768;48.578;11.574;2023-06-14T12:23:25;96128.56;;;32.56
48003;BMP280;33768;48.578;11.574;2023-06-14T12:26:29;96135.06;;;32.65
48003;BMP280;33768;48.578;11.574;2023-06-14T12:29:33;96127.84;;;32.97
48003;BMP280;33768;48.578;11.574;2023-06-14T12:32:37;96123.59;;;31.52
48003;BMP280;33768;48.578;11.574;2023-06-14T12:35:42;96137.16;;;30.43
48003;BMP280;33768;48.578;11.574;2023-06-14T12:38:46;96143.97;;;29.86
48003;BMP280;33768;48.578;11.574;2023-06-14T12:41:50;96143.09;;;29.10
48003;BMP280;33768;48.578;11.574;2023-06-14T12:44:54;96134.28;;;28.37
48003;BMP280;33768;48.578;11.574;2023-06-14T12:47:59;96150.34;;;27.77
48003;BMP280;33768;48.578;11.574;2023-06-14T12:51:03;96154.28;;;27.34
48003;BMP280;33768;48.578;11.574;2023-06-14T12:54:07;96146.16;;;27.22
48003;BMP280;33768;48.578;11.574;2023-06-14T12:57:11;96155.91;;;27.21
48003;BMP280;33768;48.578;11.574;2023-06-14T13:00:16;96159.38;;;27.20
48003;BMP280;33768;48.578;11.574;2023-06-14T13:03:21;96156.97;;;26.95
48003;BMP280;33768;48.578;11.574;2023-06-14T13:06:25;96158.72;;;26.70
48003;BMP280;33768;48.578;11.574;2023-06-14T13:09:29;96167.72;;;26.51
48003;BMP280;33768;48.578;11.574;2023-06-14T13:12:33;96158.25;;;26.75
48003;BMP280;33768;48.578;11.574;2023-06-14T13:15:37;96164.41;;;27.06
48003;BMP280;33768;48.578;11.574;2023-06-14T13:18:42;96148.50;;;26.76
48003;BMP280;33768;48.578;11.574;2023-06-14T13:21:46;96156.41;;;26.64
48003;BMP280;33768;48.578;11.574;2023-06-14T13:24:50;96153.31;;;26.91
48003;BMP280;33768;48.578;11.574;2023-06-14T13:27:55;96150.91;;;27.01
48003;BMP280;33768;48.578;11.574;2023-06-14T13:30:58;96157.56;;;26.74
48003;BMP280;33768;48.578;11.574;2023-06-14T13:34:03;96152.72;;;26.60
48003;BMP280;33768;48.578;11.574;2023-06-14T13:37:08;96163.25;;;26.44
48003;BMP280;33768;48.578;11.574;2023-06-14T13:40:12;96160.78;;;26.19
48003;BMP280;33768;48.578;11.574;2023-06-14T13:43:16;96155.84;;;27.36
48003;BMP280;33768;48.578;11.574;2023-06-14T13:46:20;96136.81;;;28.48
48003;BMP280;33768;48.578;11.574;2023-06-14T13:49:25;96134.22;;;28.75
48003;BMP280;33768;48.578;11.574;2023-06-14T13:52:29;96135.78;;;28.40
48003;BMP280;33768;48.578;11.574;2023-06-14T13:55:33;96142.22;;;29.27
48003;BMP280;33768;48.578;11.574;2023-06-14T13:58:37;96129.91;;;30.11
48003;BMP280;33768;48.578;11.574;2023-06-14T14:01:42;96116.13;;;31.02
48003;BMP280;33768;48.578;11.574;2023-06-14T14:04:45;96111.88;;;31.01
48003;BMP280;33768;48.578;11.574;2023-06-14T14:07:55;96117.13;;;30.86
48003;BMP280;33768;48.578;11.574;2023-06-14T14:11:00;96113.59;;;30.85
48003;BMP280;33768;48.578;11.574;2023-06-14T14:14:04;96113.47;;;30.52
48003;BMP280;33768;48.578;11.574;2023-06-14T14:17:08;96111.09;;;30.70
48003;BMP280;33768;48.578;11.574;2023-06-14T14:20:13;96117.25;;;30.62
48003;BMP280;33768;48.578;11.574;2023-06-14T14:23:19;96111.69;;;30.66
48003;BMP280;33768;48.578;11.574;2023-06-14T14:26:24;96109.44;;;30.34
48003;BMP280;33768;48.578;11.574;2023-06-14T14:29:28;96118.97;;;30.21
48003;BMP280;33768;48.578;11.574;2023-06-14T14:32:35;96132.13;;;29.64
48003;BMP280;33768;48.578;11.574;2023-06-14T14:35:40;96143.34;;;28.55
48003;BMP280;33768;48.578;11.574;2023-06-14T14:38:44;96152.56;;;27.42
48003;BMP280;33768;48.578;11.574;2023-06-14T14:41:50;96140.97;;;27.15
48003;BMP280;33768;48.578;11.574;2023-06-14T14:44:54;96140.88;;;27.13
48003;BMP280;33768;48.578;11.574;2023-06-14T14:47:59;96143.66;;;27.47
48003;BMP280;33768;48.578;11.574;2023-06-14T14:51:04;96145.19;;;27.16
48003;BMP280;33768;48.578;11.574;2023-06-14T14:54:08;96140.75;;;26.74
48003;BMP280;33768;48.578;11.574;2023-06-14T14:57:12;96138.34;;;26.84
48003;BMP280;33768;48.578;11.574;2023-06-14T15:00:16;96139.22;;;26.89
48003;BMP280;33768;48.578;11.574;2023-06-14T15:03:20;96141.56;;;27.31
48003;BMP280;33768;48.578;11.574;2023-06-14T15:06:24;96139.59;;;27.69
48003;BMP280;33768;48.578;11.574;2023-06-14T15:09:28;96147.91;;;27.67
48003;BMP280;33768;48.578;11.574;2023-06-14T15:12:33;96134.53;;;27.47
48003;BMP280;33768;48.578;11.574;2023-06-14T15:15:37;96141.25;;;26.86
48003;BMP280;33768;48.578;11.574;2023-06-14T15:18:41;96144.81;;;26.89
48003;BMP280;33768;48.578;11.574;2023-06-14T15:21:45;96145.28;;;27.18
48003;BMP280;33768;48.578;11.574;2023-06-14T15:24:49;96137.06;;;27.04
48003;BMP280;33768;48.578;11.574;2023-06-14T15:27:55;96137.34;;;26.43
48003;BMP280;33768;48.578;11.574;2023-06-14T15:30:59;96152.91;;;25.68
48003;BMP280;33768;48.578;11.574;2023-06-14T15:34:04;96150.88;;;25.25
48003;BMP280;33768;48.578;11.574;2023-06-14T15:37:08;96150.59;;;25.19
48003;BMP280;33768;48.578;11.574;2023-06-14T15:40:12;96147.38;;;25.24
48003;BMP280;33768;48.578;11.574;2023-06-14T15:43:16;96146.75;;;25.26
48003;BMP280;33768;48.578;11.574;2023-06-14T15:46:21;96149.47;;;25.54
48003;BMP280;33768;48.578;11.574;2023-06-14T15:49:26;96143.25;;;25.86
48003;BMP280;33768;48.578;11.574;2023-06-14T15:52:30;96146.00;;;26.02
48003;BMP280;33768;48.578;11.574;2023-06-14T15:55:35;96143.56;;;26.09
48003;BMP280;33768;48.578;11.574;2023-06-14T15:58:39;96152.25;;;25.85
48003;BMP280;33768;48.578;11.574;2023-06-14T16:01:43;96142.56;;;25.55
48003;BMP280;33768;48.578;11.574;2023-06-14T16:04:47;96149.06;;;25.16
48003;BMP280;33768;48.578;11.574;2023-06-14T16:07:51;96153.19;;;25.00
48003;BMP280;33768;48.578;11.574;2023-06-14T16:10:56;96161.66;;;25.02
48003;BMP280;33768;48.578;11.574;2023-06-14T16:14:01;96159.63;;;24.89
48003;BMP280;33768;48.578;11.574;2023-06-14T16:17:05;96161.09;;;24.77
48003;BMP280;33768;48.578;11.574;2023-06-14T16:20:09;96162.47;;;24.76
48003;BMP280;33768;48.578;11.574;2023-06-14T16:23:14;96161.31;;;24.81
48003;BMP280;33768;48.578;11.574;2023-06-14T16:26:18;96160.34;;;24.89
48003;BMP280;33768;48.578;11.574;2023-06-14T16:29:23;96160.97;;;25.16
48003;BMP280;33768;48.578;11.574;2023-06-14T16:32:27;96163.63;;;25.43
48003;BMP280;33768;48.578;11.574;2023-06-14T16:35:31;96168.69;;;25.03
48003;BMP280;33768;48.578;11.574;2023-06-14T16:38:35;96177.50;;;24.84
48003;BMP280;33768;48.578;11.574;2023-06-14T16:41:40;96178.34;;;24.86
48003;BMP280;33768;48.578;11.574;2023-06-14T16:44:44;96175.94;;;24.66
48003;BMP280;33768;48.578;11.574;2023-06-14T16:47:48;96179.31;;;24.22
48003;BMP280;33768;48.578;11.574;2023-06-14T16:50:52;96181.69;;;23.88
48003;BMP280;33768;48.578;11.574;2023-06-14T16:53:56;96201.47;;;23.54
48003;BMP280;33768;48.578;11.574;2023-06-14T16:57:00;96199.31;;;23.28
48003;BMP280;33768;48.578;11.574;2023-06-14T17:00:05;96201.09;;;23.10
48003;BMP280;33768;48.578;11.574;2023-06-14T17:03:10;96197.41;;;23.06
48003;BMP280;33768;48.578;11.574;2023-06-14T17:06:14;96207.84;;;22.94
48003;BMP280;33768;48.578;11.574;2023-06-14T17:09:18;96205.00;;;22.81
48003;BMP280;33768;48.578;11.574;2023-06-14T17:12:22;96204.44;;;22.71
48003;BMP280;33768;48.578;11.574;2023-06-14T17:15:26;96217.66;;;22.59
48003;BMP280;33768;48.578;11.574;2023-06-14T17:18:31;96216.47;;;22.51
48003;BMP280;33768;48.578;11.574;2023-06-14T17:21:35;96225.19;;;22.45
48003;BMP280;33768;48.578;11.574;2023-06-14T17:24:39;96213.69;;;22.51
48003;BMP280;33768;48.578;11.574;2023-06-14T17:27:44;96215.38;;;22.44
48003;BMP280;33768;48.578;11.574;2023-06-14T17:30:48;96218.94;;;22.33
48003;BMP280;33768;48.578;11.574;2023-06-14T17:33:52;96214.47;;;22.28
48003;BMP280;33768;48.578;11.574;2023-06-14T17:36:56;96217.97;;;22.29
48003;BMP280;33768;48.578;11.574;2023-06-14T17:40:00;96221.00;;;22.33
48003;BMP280;33768;48.578;11.574;2023-06-14T17:43:05;96220.59;;;22.38
48003;BMP280;33768;48.578;11.574;2023-06-14T17:46:08;96217.72;;;22.36
48003;BMP280;33768;48.578;11.574;2023-06-14T17:49:13;96225.72;;;22.30
48003;BMP280;33768;48.578;11.574;2023-06-14T17:52:17;96223.91;;;22.24